sensor_id;sensor_type;location;lat;lon;timestamp;pressure;altitude;pressure_sealevel;temperature;humidity
59043;BME280;44826;51.596;5.624;2022-07-10T00:00:10;102664.25;;;14.78;62.32
59043;BME280;44826;51.596;5.624;2022-07-10T00:02:37;102659.06;;;14.75;62.27
59043;BME280;44826;51.596;5.624;2022-07-10T00:05:03;102657.31;;;14.76;62.21
59043;BME280;44826;51.596;5.624;2022-07-10T00:07:29;102659.06;;;14.74;62.51
59043;BME280;44826;51.596;5.624;2022-07-10T00:09:54;102659.97;;;14.72;62.72
59043;BME280;44826;51.596;5.624;2022-07-10T00:12:19;102667.81;;;14.72;62.75
59043;BME280;44826;51.596;5.624;2022-07-10T00:14:45;102663.50;;;14.70;62.77
59043;BME280;44826;51.596;5.624;2022-07-10T00:17:10;102661.75;;;14.69;62.47
59043;BME280;44826;51.596;5.624;2022-07-10T00:19:35;102661.81;;;14.64;62.99
59043;BME280;44826;51.596;5.624;2022-07-10T00:22:01;102660.09;;;14.60;62.61
59043;BME280;44826;51.596;5.624;2022-07-10T00:24:26;102654.09;;;14.52;63.03
59043;BME280;44826;51.596;5.624;2022-07-10T00:26:51;102650.69;;;14.47;63.19
59043;BME280;44826;51.596;5.624;2022-07-10T00:29:16;102648.94;;;14.46;63.11
59043;BME280;44826;51.596;5.624;2022-07-10T00:31:42;102652.44;;;14.45;63.02
59043;BME280;44826;51.596;5.624;2022-07-10T00:34:07;102652.47;;;14.41;63.05
59043;BME280;44826;51.596;5.624;2022-07-10T00:36:32;102649.03;;;14.38;63.09
59043;BME280;44826;51.596;5.624;2022-07-10T00:38:58;102653.47;;;14.34;63.23
59043;BME280;44826;51.596;5.624;2022-07-10T00:41:23;102640.41;;;14.31;63.00
59043;BME280;44826;51.596;5.624;2022-07-10T00:43:58;102641.31;;;14.27;63.51
59043;BME280;44826;51.596;5.624;2022-07-10T00:46:25;102637.78;;;14.30;63.48
59043;BME280;44826;51.596;5.624;2022-07-10T00:48:51;102640.41;;;14.31;63.51
59043;BME280;44826;51.596;5.624;2022-07-10T00:51:18;102640.41;;;14.31;63.42
59043;BME280;44826;51.596;5.624;2022-07-10T00:53:45;102639.56;;;14.29;63.61
59043;BME280;44826;51.596;5.624;2022-07-10T00:56:11;102636.94;;;14.27;63.64
59043;BME280;44826;51.596;5.624;2022-07-10T00:58:40;102637.81;;;14.28;63.55
59043;BME280;44826;51.596;5.624;2022-07-10T01:01:06;102630.00;;;14.25;63.76
59043;BME280;44826;51.596;5.624;2022-07-10T01:03:32;102624.75;;;14.25;63.50
59043;BME280;44826;51.596;5.624;2022-07-10T01:05:57;102627.41;;;14.23;63.62
59043;BME280;44826;51.596;5.624;2022-07-10T01:08:23;102620.44;;;14.22;63.63
59043;BME280;44826;51.596;5.624;2022-07-10T01:10:49;102616.09;;;14.21;63.78
59043;BME280;44826;51.596;5.624;2022-07-10T01:13:14;102608.31;;;14.17;63.92
59043;BME280;44826;51.596;5.624;2022-07-10T01:15:40;102611.81;;;14.16;63.85
59043;BME280;44826;51.596;5.624;2022-07-10T01:18:06;102614.44;;;14.13;64.25
59043;BME280;44826;51.596;5.624;2022-07-10T01:20:32;102604.88;;;14.11;64.29
59043;BME280;44826;51.596;5.624;2022-07-10T01:22:58;102601.38;;;14.11;64.42
59043;BME280;44826;51.596;5.624;2022-07-10T01:25:24;102595.31;;;14.09;64.49
59043;BME280;44826;51.596;5.624;2022-07-10T01:27:50;102606.63;;;14.09;64.63
59043;BME280;44826;51.596;5.624;2022-07-10T01:30:15;102607.47;;;14.10;64.36
59043;BME280;44826;51.596;5.624;2022-07-10T01:32:40;102605.75;;;14.10;64.71
59043;BME280;44826;51.596;5.624;2022-07-10T01:35:06;102611.88;;;14.09;64.51
59043;BME280;44826;51.596;5.624;2022-07-10T01:37:33;102615.41;;;14.07;64.84
59043;BME280;44826;51.596;5.624;2022-07-10T01:39:58;102609.28;;;14.06;64.61
59043;BME280;44826;51.596;5.624;2022-07-10T01:42:23;102607.50;;;14.08;64.75
59043;BME280;44826;51.596;5.624;2022-07-10T01:44:48;102602.31;;;14.07;65.07
59043;BME280;44826;51.596;5.624;2022-07-10T01:47:14;102606.66;;;14.08;65.32
59043;BME280;44826;51.596;5.624;2022-07-10T01:49:39;102602.28;;;14.08;65.39
59043;BME280;44826;51.596;5.624;2022-07-10T01:52:05;102607.50;;;14.08;65.41
59043;BME280;44826;51.596;5.624;2022-07-10T01:54:30;102611.00;;;14.09;65.28
59043;BME280;44826;51.596;5.624;2022-07-10T01:56:55;102599.63;;;14.10;65.28
59043;BME280;44826;51.596;5.624;2022-07-10T01:59:21;102597.03;;;14.08;65.21
59043;BME280;44826;51.596;5.624;2022-07-10T02:01:46;102602.28;;;14.08;65.51
59043;BME280;44826;51.596;5.624;2022-07-10T02:04:11;102597.03;;;14.08;65.82
59043;BME280;44826;51.596;5.624;2022-07-10T02:06:55;102597.03;;;14.08;65.68
59043;BME280;44826;51.596;5.624;2022-07-10T02:09:20;102591.81;;;14.08;65.76
59043;BME280;44826;51.596;5.624;2022-07-10T02:11:45;102587.47;;;14.07;65.36
59043;BME280;44826;51.596;5.624;2022-07-10T02:14:11;102599.69;;;14.07;65.46
59043;BME280;44826;51.596;5.624;2022-07-10T02:16:36;102592.72;;;14.04;65.50
59043;BME280;44826;51.596;5.624;2022-07-10T02:19:02;102586.63;;;14.02;65.68
59043;BME280;44826;51.596;5.624;2022-07-10T02:21:27;102588.44;;;14.00;65.73
59043;BME280;44826;51.596;5.624;2022-07-10T02:23:52;102588.47;;;13.97;66.24
59043;BME280;44826;51.596;5.624;2022-07-10T02:26:17;102583.25;;;13.94;65.98
59043;BME280;44826;51.596;5.624;2022-07-10T02:28:43;102588.50;;;13.92;66.12
59043;BME280;44826;51.596;5.624;2022-07-10T02:31:08;102595.53;;;13.90;66.37
59043;BME280;44826;51.596;5.624;2022-07-10T02:33:33;102598.16;;;13.89;66.20
59043;BME280;44826;51.596;5.624;2022-07-10T02:35:59;102595.59;;;13.84;66.55
59043;BME280;44826;51.596;5.624;2022-07-10T02:38:24;102593.81;;;13.85;67.08
59043;BME280;44826;51.596;5.624;2022-07-10T02:40:50;102586.84;;;13.84;66.91
59043;BME280;44826;51.596;5.624;2022-07-10T02:43:15;102590.38;;;13.83;66.75
59043;BME280;44826;51.596;5.624;2022-07-10T02:45:40;102579.94;;;13.79;67.12
59043;BME280;44826;51.596;5.624;2022-07-10T02:48:05;102584.34;;;13.77;67.11
59043;BME280;44826;51.596;5.624;2022-07-10T02:50:31;102582.63;;;13.75;67.06
59043;BME280;44826;51.596;5.624;2022-07-10T02:52:56;102589.59;;;13.74;67.13
59043;BME280;44826;51.596;5.624;2022-07-10T02:55:21;102581.78;;;13.71;67.05
59043;BME280;44826;51.596;5.624;2022-07-10T02:57:47;102587.00;;;13.71;67.64
59043;BME280;44826;51.596;5.624;2022-07-10T03:00:12;102587.03;;;13.70;67.72
59043;BME280;44826;51.596;5.624;2022-07-10T03:02:38;102579.19;;;13.70;67.89
59043;BME280;44826;51.596;5.624;2022-07-10T03:05:03;102583.53;;;13.69;67.73
59043;BME280;44826;51.596;5.624;2022-07-10T03:07:29;102582.69;;;13.67;67.59
59043;BME280;44826;51.596;5.624;2022-07-10T03:09:54;102583.59;;;13.66;68.04
59043;BME280;44826;51.596;5.624;2022-07-10T03:12:19;102583.59;;;13.66;67.64
59043;BME280;44826;51.596;5.624;2022-07-10T03:14:44;102575.75;;;13.64;67.75
59043;BME280;44826;51.596;5.624;2022-07-10T03:17:10;102567.03;;;13.64;67.47
59043;BME280;44826;51.596;5.624;2022-07-10T03:19:35;102576.66;;;13.62;67.74
59043;BME280;44826;51.596;5.624;2022-07-10T03:22:00;102580.16;;;13.61;67.72
59043;BME280;44826;51.596;5.624;2022-07-10T03:24:26;102582.75;;;13.61;67.89
59043;BME280;44826;51.596;5.624;2022-07-10T03:26:51;102571.41;;;13.62;67.97
59043;BME280;44826;51.596;5.624;2022-07-10T03:29:16;102572.28;;;13.64;67.77
59043;BME280;44826;51.596;5.624;2022-07-10T03:31:41;102567.00;;;13.65;68.07
59043;BME280;44826;51.596;5.624;2022-07-10T03:34:07;102568.75;;;13.66;68.00
59043;BME280;44826;51.596;5.624;2022-07-10T03:36:32;102571.41;;;13.65;68.41
59043;BME280;44826;51.596;5.624;2022-07-10T03:38:58;102569.66;;;13.64;68.19
59043;BME280;44826;51.596;5.624;2022-07-10T03:41:23;102560.06;;;13.61;68.29
59043;BME280;44826;51.596;5.624;2022-07-10T03:43:48;102572.28;;;13.62;68.92
59043;BME280;44826;51.596;5.624;2022-07-10T03:46:13;102569.66;;;13.64;68.86
59043;BME280;44826;51.596;5.624;2022-07-10T03:48:39;102567.03;;;13.64;68.49
59043;BME280;44826;51.596;5.624;2022-07-10T03:51:04;102557.47;;;13.63;68.85
59043;BME280;44826;51.596;5.624;2022-07-10T03:53:29;102556.59;;;13.64;68.55
59043;BME280;44826;51.596;5.624;2022-07-10T03:55:55;102560.09;;;13.63;69.00
59043;BME280;44826;51.596;5.624;2022-07-10T03:58:20;102555.69;;;13.63;68.70
59043;BME280;44826;51.596;5.624;2022-07-10T04:00:46;102553.97;;;13.62;68.89
59043;BME280;44826;51.596;5.624;2022-07-10T04:03:11;102556.63;;;13.61;68.93
59043;BME280;44826;51.596;5.624;2022-07-10T04:05:38;102559.22;;;13.61;69.55
59043;BME280;44826;51.596;5.624;2022-07-10T04:08:04;102559.22;;;13.61;68.96
59043;BME280;44826;51.596;5.624;2022-07-10T04:10:30;102567.97;;;13.60;69.47
59043;BME280;44826;51.596;5.624;2022-07-10T04:12:56;102573.16;;;13.63;69.81
59043;BME280;44826;51.596;5.624;2022-07-10T04:15:22;102559.16;;;13.65;69.68
59043;BME280;44826;51.596;5.624;2022-07-10T04:17:50;102560.00;;;13.69;69.48
59043;BME280;44826;51.596;5.624;2022-07-10T04:20:16;102552.16;;;13.71;69.34
59043;BME280;44826;51.596;5.624;2022-07-10T04:22:41;102552.13;;;13.72;69.52
59043;BME280;44826;51.596;5.624;2022-07-10T04:25:08;102555.59;;;13.74;69.17
59043;BME280;44826;51.596;5.624;2022-07-10T04:27:34;102554.75;;;13.74;69.86
59043;BME280;44826;51.596;5.624;2022-07-10T04:29:59;102566.03;;;13.77;69.55
59043;BME280;44826;51.596;5.624;2022-07-10T04:32:25;102560.75;;;13.80;69.52
59043;BME280;44826;51.596;5.624;2022-07-10T04:34:50;102559.88;;;13.80;69.66
59043;BME280;44826;51.596;5.624;2022-07-10T04:37:16;102559.88;;;13.80;69.03
59043;BME280;44826;51.596;5.624;2022-07-10T04:39:42;102555.53;;;13.80;69.58
59043;BME280;44826;51.596;5.624;2022-07-10T04:42:08;102554.66;;;13.81;69.63
59043;BME280;44826;51.596;5.624;2022-07-10T04:44:34;102559.03;;;13.78;69.46
59043;BME280;44826;51.596;5.624;2022-07-10T04:47:01;102552.06;;;13.78;69.81
59043;BME280;44826;51.596;5.624;2022-07-10T04:49:26;102557.28;;;13.78;69.66
59043;BME280;44826;51.596;5.624;2022-07-10T04:51:52;102552.06;;;13.78;69.77
59043;BME280;44826;51.596;5.624;2022-07-10T04:54:17;102561.63;;;13.79;70.12
59043;BME280;44826;51.596;5.624;2022-07-10T04:56:42;102560.75;;;13.80;69.67
59043;BME280;44826;51.596;5.624;2022-07-10T04:59:08;102562.50;;;13.81;69.80
59043;BME280;44826;51.596;5.624;2022-07-10T05:01:34;102560.69;;;13.84;69.63
59043;BME280;44826;51.596;5.624;2022-07-10T05:04:00;102567.66;;;13.85;69.54
59043;BME280;44826;51.596;5.624;2022-07-10T05:06:25;102561.53;;;13.86;69.63
59043;BME280;44826;51.596;5.624;2022-07-10T05:08:50;102573.72;;;13.90;70.45
59043;BME280;44826;51.596;5.624;2022-07-10T05:11:16;102572.81;;;13.94;69.94
59043;BME280;44826;51.596;5.624;2022-07-10T05:13:41;102581.50;;;13.96;69.66
59043;BME280;44826;51.596;5.624;2022-07-10T05:16:10;102584.97;;;13.98;69.16
59043;BME280;44826;51.596;5.624;2022-07-10T05:18:35;102577.09;;;14.00;69.37
59043;BME280;44826;51.596;5.624;2022-07-10T05:21:01;102576.16;;;14.05;69.65
59043;BME280;44826;51.596;5.624;2022-07-10T05:23:26;102569.13;;;14.07;69.43
59043;BME280;44826;51.596;5.624;2022-07-10T05:25:51;102572.66;;;14.08;69.15
59043;BME280;44826;51.596;5.624;2022-07-10T05:28:16;102570.00;;;14.09;69.00
59043;BME280;44826;51.596;5.624;2022-07-10T05:30:42;102566.50;;;14.10;69.63
59043;BME280;44826;51.596;5.624;2022-07-10T05:33:07;102572.56;;;14.13;69.59
59043;BME280;44826;51.596;5.624;2022-07-10T05:35:33;102576.91;;;14.17;69.64
59043;BME280;44826;51.596;5.624;2022-07-10T05:37:58;102573.34;;;14.18;69.52
59043;BME280;44826;51.596;5.624;2022-07-10T05:40:24;102573.41;;;14.16;68.93
59043;BME280;44826;51.596;5.624;2022-07-10T05:42:49;102569.06;;;14.14;69.36
59043;BME280;44826;51.596;5.624;2022-07-10T05:45:15;102565.59;;;14.11;69.50
59043;BME280;44826;51.596;5.624;2022-07-10T05:47:40;102577.84;;;14.09;69.18
59043;BME280;44826;51.596;5.624;2022-07-10T05:50:05;102576.13;;;14.08;69.33
59043;BME280;44826;51.596;5.624;2022-07-10T05:52:31;102578.78;;;14.04;69.59
59043;BME280;44826;51.596;5.624;2022-07-10T05:54:56;102578.78;;;14.02;69.50
59043;BME280;44826;51.596;5.624;2022-07-10T05:57:22;102584.91;;;14.01;69.59
59043;BME280;44826;51.596;5.624;2022-07-10T05:59:48;102568.31;;;14.02;69.67
59043;BME280;44826;51.596;5.624;2022-07-10T06:02:13;102567.44;;;14.03;69.65
59043;BME280;44826;51.596;5.624;2022-07-10T06:04:39;102569.19;;;14.04;69.93
59043;BME280;44826;51.596;5.624;2022-07-10T06:07:04;102569.13;;;14.07;70.50
59043;BME280;44826;51.596;5.624;2022-07-10T06:09:29;102563.00;;;14.11;70.21
59043;BME280;44826;51.596;5.624;2022-07-10T06:11:55;102564.63;;;14.19;71.07
59043;BME280;44826;51.596;5.624;2022-07-10T06:14:20;102568.03;;;14.27;70.41
59043;BME280;44826;51.596;5.624;2022-07-10T06:16:45;102562.69;;;14.35;70.08
59043;BME280;44826;51.596;5.624;2022-07-10T06:19:11;102573.88;;;14.45;70.09
59043;BME280;44826;51.596;5.624;2022-07-10T06:21:37;102574.63;;;14.53;69.21
59043;BME280;44826;51.596;5.624;2022-07-10T06:24:02;102577.13;;;14.62;68.81
59043;BME280;44826;51.596;5.624;2022-07-10T06:26:28;102564.78;;;14.70;69.05
59043;BME280;44826;51.596;5.624;2022-07-10T06:28:53;102567.28;;;14.80;69.82
59043;BME280;44826;51.596;5.624;2022-07-10T06:31:18;102570.63;;;14.90;69.32
59043;BME280;44826;51.596;5.624;2022-07-10T06:33:44;102557.34;;;15.00;68.33
59043;BME280;44826;51.596;5.624;2022-07-10T06:36:09;102558.13;;;15.07;68.39
59043;BME280;44826;51.596;5.624;2022-07-10T06:38:34;102557.22;;;15.07;68.00
59043;BME280;44826;51.596;5.624;2022-07-10T06:41:00;102557.19;;;15.10;67.50
59043;BME280;44826;51.596;5.624;2022-07-10T06:43:25;102558.91;;;15.11;68.66
59043;BME280;44826;51.596;5.624;2022-07-10T06:45:50;102557.97;;;15.13;68.73
59043;BME280;44826;51.596;5.624;2022-07-10T06:48:16;102566.69;;;15.17;68.00
59043;BME280;44826;51.596;5.624;2022-07-10T06:50:41;102561.34;;;15.22;67.78
59043;BME280;44826;51.596;5.624;2022-07-10T06:53:07;102560.31;;;15.30;68.09
59043;BME280;44826;51.596;5.624;2022-07-10T06:55:33;102559.25;;;15.42;67.59
59043;BME280;44826;51.596;5.624;2022-07-10T06:57:59;102563.38;;;15.54;66.30
59043;BME280;44826;51.596;5.624;2022-07-10T07:00:25;102556.22;;;15.62;67.00
59043;BME280;44826;51.596;5.624;2022-07-10T07:02:51;102556.03;;;15.72;65.80
59043;BME280;44826;51.596;5.624;2022-07-10T07:05:16;102550.72;;;15.75;65.67
59043;BME280;44826;51.596;5.624;2022-07-10T07:07:41;102555.88;;;15.81;65.98
59043;BME280;44826;51.596;5.624;2022-07-10T07:10:09;102558.38;;;15.89;64.79
59043;BME280;44826;51.596;5.624;2022-07-10T07:12:35;102562.69;;;15.91;65.22
59043;BME280;44826;51.596;5.624;2022-07-10T07:15:00;102569.66;;;15.92;64.82
59043;BME280;44826;51.596;5.624;2022-07-10T07:17:26;102574.84;;;15.96;64.78
59043;BME280;44826;51.596;5.624;2022-07-10T07:19:59;102562.63;;;15.95;65.02
59043;BME280;44826;51.596;5.624;2022-07-10T07:22:43;102573.13;;;15.95;64.86
59043;BME280;44826;51.596;5.624;2022-07-10T07:25:27;102571.31;;;15.97;65.07
59043;BME280;44826;51.596;5.624;2022-07-10T07:27:53;102568.50;;;16.06;65.91
59043;BME280;44826;51.596;5.624;2022-07-10T07:30:18;102573.63;;;16.14;65.64
59043;BME280;44826;51.596;5.624;2022-07-10T07:32:45;102576.13;;;16.18;64.41
59043;BME280;44826;51.596;5.624;2022-07-10T07:35:12;102576.97;;;16.20;65.38
59043;BME280;44826;51.596;5.624;2022-07-10T07:37:41;102572.56;;;16.22;64.08
59043;BME280;44826;51.596;5.624;2022-07-10T07:40:09;102575.19;;;16.22;64.16
59043;BME280;44826;51.596;5.624;2022-07-10T07:42:35;102576.97;;;16.19;64.53
59043;BME280;44826;51.596;5.624;2022-07-10T07:45:01;102569.16;;;16.17;63.75
59043;BME280;44826;51.596;5.624;2022-07-10T07:47:27;102577.88;;;16.19;63.59
59043;BME280;44826;51.596;5.624;2022-07-10T07:49:52;102569.09;;;16.20;64.58
59043;BME280;44826;51.596;5.624;2022-07-10T07:52:17;102575.13;;;16.24;63.98
59043;BME280;44826;51.596;5.624;2022-07-10T07:54:43;102574.19;;;16.27;64.62
59043;BME280;44826;51.596;5.624;2022-07-10T07:57:08;102575.03;;;16.29;65.02
59043;BME280;44826;51.596;5.624;2022-07-10T07:59:33;102567.13;;;16.30;64.42
59043;BME280;44826;51.596;5.624;2022-07-10T08:01:59;102568.03;;;16.28;64.21
59043;BME280;44826;51.596;5.624;2022-07-10T08:04:25;102569.88;;;16.24;64.58
59043;BME280;44826;51.596;5.624;2022-07-10T08:06:50;102567.38;;;16.19;65.84
59043;BME280;44826;51.596;5.624;2022-07-10T08:09:18;102569.16;;;16.17;65.15
59043;BME280;44826;51.596;5.624;2022-07-10T08:11:43;102569.16;;;16.16;64.93
59043;BME280;44826;51.596;5.624;2022-07-10T08:14:08;102565.59;;;16.20;65.74
59043;BME280;44826;51.596;5.624;2022-07-10T08:16:34;102570.84;;;16.20;65.24
59043;BME280;44826;51.596;5.624;2022-07-10T08:18:59;102572.63;;;16.19;65.42
59043;BME280;44826;51.596;5.624;2022-07-10T08:21:24;102576.13;;;16.18;64.99
59043;BME280;44826;51.596;5.624;2022-07-10T08:23:50;102572.72;;;16.13;65.12
59043;BME280;44826;51.596;5.624;2022-07-10T08:26:15;102571.00;;;16.12;65.50
59043;BME280;44826;51.596;5.624;2022-07-10T08:28:40;102570.16;;;16.12;65.84
59043;BME280;44826;51.596;5.624;2022-07-10T08:31:05;102570.09;;;16.13;65.77
59043;BME280;44826;51.596;5.624;2022-07-10T08:33:31;102574.41;;;16.17;65.59
59043;BME280;44826;51.596;5.624;2022-07-10T08:35:56;102569.09;;;16.20;66.35
59043;BME280;44826;51.596;5.624;2022-07-10T08:38:25;102573.34;;;16.24;65.30
59043;BME280;44826;51.596;5.624;2022-07-10T08:40:53;102572.56;;;16.22;65.00
59043;BME280;44826;51.596;5.624;2022-07-10T08:43:22;102570.81;;;16.21;65.29
59043;BME280;44826;51.596;5.624;2022-07-10T08:45:49;102567.25;;;16.24;65.48
59043;BME280;44826;51.596;5.624;2022-07-10T08:48:20;102574.13;;;16.30;65.05
59043;BME280;44826;51.596;5.624;2022-07-10T08:50:47;102576.53;;;16.41;65.23
59043;BME280;44826;51.596;5.624;2022-07-10T08:53:16;102572.94;;;16.45;64.29
59043;BME280;44826;51.596;5.624;2022-07-10T08:55:44;102580.69;;;16.49;65.36
59043;BME280;44826;51.596;5.624;2022-07-10T08:58:11;102580.75;;;16.46;63.93
59043;BME280;44826;51.596;5.624;2022-07-10T09:00:37;102575.56;;;16.43;65.06
59043;BME280;44826;51.596;5.624;2022-07-10T09:03:03;102579.09;;;16.44;65.06
59043;BME280;44826;51.596;5.624;2022-07-10T09:05:28;102584.41;;;16.41;65.22
59043;BME280;44826;51.596;5.624;2022-07-10T09:07:54;102578.34;;;16.37;65.14
59043;BME280;44826;51.596;5.624;2022-07-10T09:10:20;102574.84;;;16.36;65.73
59043;BME280;44826;51.596;5.624;2022-07-10T09:12:54;102577.47;;;16.38;64.86
59043;BME280;44826;51.596;5.624;2022-07-10T09:15:21;102566.13;;;16.36;65.20
59043;BME280;44826;51.596;5.624;2022-07-10T09:17:55;102567.75;;;16.42;65.15
59043;BME280;44826;51.596;5.624;2022-07-10T09:23:42;102563.94;;;16.55;64.76
59043;BME280;44826;51.596;5.624;2022-07-10T09:26:04;102560.28;;;16.62;65.36
59043;BME280;44826;51.596;5.624;2022-07-10T09:28:29;102560.91;;;16.72;65.07
59043;BME280;44826;51.596;5.624;2022-07-10T09:30:56;102551.00;;;16.83;63.76
59043;BME280;44826;51.596;5.624;2022-07-10T09:33:25;102545.47;;;16.94;64.19
59043;BME280;44826;51.596;5.624;2022-07-10T09:36:05;102542.56;;;17.07;63.53
59043;BME280;44826;51.596;5.624;2022-07-10T09:41:13;102543.72;;;17.29;62.47
59043;BME280;44826;51.596;5.624;2022-07-10T09:43:46;102551.47;;;17.34;62.30
59043;BME280;44826;51.596;5.624;2022-07-10T09:46:11;102534.88;;;17.32;63.65
59043;BME280;44826;51.596;5.624;2022-07-10T09:48:37;102536.69;;;17.30;62.89
59043;BME280;44826;51.596;5.624;2022-07-10T09:51:04;102536.69;;;17.30;63.38
59043;BME280;44826;51.596;5.624;2022-07-10T09:53:32;102536.59;;;17.33;62.82
59043;BME280;44826;51.596;5.624;2022-07-10T09:55:59;102546.09;;;17.39;63.62
59043;BME280;44826;51.596;5.624;2022-07-10T09:58:29;102540.47;;;17.51;64.07
59043;BME280;44826;51.596;5.624;2022-07-10T10:00:58;102537.59;;;17.60;61.57
59043;BME280;44826;51.596;5.624;2022-07-10T10:03:24;102537.56;;;17.62;61.83
59043;BME280;44826;51.596;5.624;2022-07-10T10:06:02;102535.81;;;17.61;61.39
59043;BME280;44826;51.596;5.624;2022-07-10T10:08:29;102543.84;;;17.56;62.01
59043;BME280;44826;51.596;5.624;2022-07-10T10:10:57;102536.09;;;17.52;61.73
59043;BME280;44826;51.596;5.624;2022-07-10T10:13:24;102539.56;;;17.54;63.07
59043;BME280;44826;51.596;5.624;2022-07-10T10:15:53;102538.44;;;17.63;62.25
59043;BME280;44826;51.596;5.624;2022-07-10T10:18:25;102539.84;;;17.74;62.67
59043;BME280;44826;51.596;5.624;2022-07-10T10:20:55;102542.03;;;17.90;62.39
59043;BME280;44826;51.596;5.624;2022-07-10T10:23:22;102529.34;;;18.04;62.77
59043;BME280;44826;51.596;5.624;2022-07-10T10:25:49;102527.16;;;18.19;59.87
59043;BME280;44826;51.596;5.624;2022-07-10T10:28:16;102520.72;;;18.28;59.68
59043;BME280;44826;51.596;5.624;2022-07-10T10:30:44;102515.31;;;18.32;60.01
59043;BME280;44826;51.596;5.624;2022-07-10T10:35:58;102518.22;;;18.52;58.72
59043;BME280;44826;51.596;5.624;2022-07-10T10:38:23;102522.53;;;18.54;59.70
59043;BME280;44826;51.596;5.624;2022-07-10T10:40:49;102526.78;;;18.58;58.99
59043;BME280;44826;51.596;5.624;2022-07-10T10:45:43;102529.09;;;18.69;59.45
59043;BME280;44826;51.596;5.624;2022-07-10T10:48:11;102524.56;;;18.73;58.53
59043;BME280;44826;51.596;5.624;2022-07-10T10:50:47;102525.28;;;18.78;58.74
59043;BME280;44826;51.596;5.624;2022-07-10T10:53:23;102518.88;;;18.85;59.15
59043;BME280;44826;51.596;5.624;2022-07-10T10:58:44;102513.81;;;19.06;58.81
59043;BME280;44826;51.596;5.624;2022-07-10T11:06:50;102500.53;;;19.33;57.26
59043;BME280;44826;51.596;5.624;2022-07-10T11:09:27;102496.84;;;19.38;57.30
59043;BME280;44826;51.596;5.624;2022-07-10T11:12:11;102488.66;;;19.45;57.42
59043;BME280;44826;51.596;5.624;2022-07-10T11:14:44;102491.09;;;19.51;57.08
59043;BME280;44826;51.596;5.624;2022-07-10T11:17:10;102497.13;;;19.54;55.94
59043;BME280;44826;51.596;5.624;2022-07-10T11:19:36;102495.84;;;19.65;57.45
59043;BME280;44826;51.596;5.624;2022-07-10T11:22:23;102487.00;;;19.66;57.05
59043;BME280;44826;51.596;5.624;2022-07-10T11:28:05;102490.44;;;19.68;56.48
59043;BME280;44826;51.596;5.624;2022-07-10T11:30:48;102495.81;;;19.66;56.04
59043;BME280;44826;51.596;5.624;2022-07-10T11:33:14;102497.56;;;19.66;54.88
59043;BME280;44826;51.596;5.624;2022-07-10T11:35:40;102501.00;;;19.68;55.82
59043;BME280;44826;51.596;5.624;2022-07-10T11:38:05;102497.44;;;19.69;57.30
59043;BME280;44826;51.596;5.624;2022-07-10T11:40:35;102495.50;;;19.74;56.21
59043;BME280;44826;51.596;5.624;2022-07-10T11:43:01;102491.88;;;19.77;54.69
59043;BME280;44826;51.596;5.624;2022-07-10T11:45:31;102479.84;;;19.69;55.00
59043;BME280;44826;51.596;5.624;2022-07-10T11:47:58;102470.31;;;19.65;55.33
59043;BME280;44826;51.596;5.624;2022-07-10T11:50:24;102469.31;;;19.68;55.51
59043;BME280;44826;51.596;5.624;2022-07-10T11:52:52;102463.75;;;19.76;56.31
59043;BME280;44826;51.596;5.624;2022-07-10T11:55:20;102465.13;;;19.86;55.99
59043;BME280;44826;51.596;5.624;2022-07-10T11:57:46;102468.41;;;19.93;54.84
59043;BME280;44826;51.596;5.624;2022-07-10T12:00:28;102486.91;;;19.93;56.02
59043;BME280;44826;51.596;5.624;2022-07-10T12:02:56;102477.81;;;19.76;55.14
59043;BME280;44826;51.596;5.624;2022-07-10T12:05:37;102471.31;;;19.63;56.03
59043;BME280;44826;51.596;5.624;2022-07-10T12:08:03;102476.88;;;19.55;55.67
59043;BME280;44826;51.596;5.624;2022-07-10T12:10:30;102476.28;;;19.47;56.28
59043;BME280;44826;51.596;5.624;2022-07-10T12:13:11;102475.44;;;19.46;56.99
59043;BME280;44826;51.596;5.624;2022-07-10T12:15:41;102490.91;;;19.55;57.06
59043;BME280;44826;51.596;5.624;2022-07-10T12:18:14;102483.63;;;19.62;56.86
59043;BME280;44826;51.596;5.624;2022-07-10T12:20:40;102486.78;;;19.72;55.72
59043;BME280;44826;51.596;5.624;2022-07-10T12:23:11;102479.78;;;19.71;55.81
59043;BME280;44826;51.596;5.624;2022-07-10T12:25:37;102479.78;;;19.71;57.66
59043;BME280;44826;51.596;5.624;2022-07-10T12:28:03;102479.56;;;19.77;56.44
59043;BME280;44826;51.596;5.624;2022-07-10T12:30:37;102486.25;;;19.86;56.52
59043;BME280;44826;51.596;5.624;2022-07-10T12:33:06;102486.00;;;19.94;55.92
59043;BME280;44826;51.596;5.624;2022-07-10T12:35:32;102488.31;;;20.01;55.02
59043;BME280;44826;51.596;5.624;2022-07-10T12:38:18;102482.13;;;20.02;55.55
59043;BME280;44826;51.596;5.624;2022-07-10T12:40:43;102479.19;;;20.10;55.14
59043;BME280;44826;51.596;5.624;2022-07-10T12:43:09;102486.72;;;20.20;55.09
59043;BME280;44826;51.596;5.624;2022-07-10T12:45:37;102481.31;;;20.23;54.74
59043;BME280;44826;51.596;5.624;2022-07-10T12:48:04;102482.03;;;20.26;56.00
59043;BME280;44826;51.596;5.624;2022-07-10T12:50:33;102479.03;;;20.36;55.27
59043;BME280;44826;51.596;5.624;2022-07-10T12:53:09;102476.75;;;20.49;54.93
59043;BME280;44826;51.596;5.624;2022-07-10T12:55:36;102472.06;;;20.55;54.86
59043;BME280;44826;51.596;5.624;2022-07-10T12:58:07;102470.75;;;20.66;54.63
59043;BME280;44826;51.596;5.624;2022-07-10T13:00:46;102462.25;;;20.80;55.05
59043;BME280;44826;51.596;5.624;2022-07-10T13:03:22;102470.50;;;20.92;54.59
59043;BME280;44826;51.596;5.624;2022-07-10T13:05:49;102469.56;;;20.93;53.85
59043;BME280;44826;51.596;5.624;2022-07-10T13:08:21;102467.38;;;21.03;53.09
59043;BME280;44826;51.596;5.624;2022-07-10T13:10:51;102460.03;;;21.10;52.86